Time;durP1;ratioP1;P1;durP2;ratioP2;P2;SDS_P1;SDS_P2;PMS_P1;PMS_P2;Temp;Humidity;BMP_temperature;BMP_pressure;BME280_temperature;BME280_humidity;BME280_pressure;Samples;Min_cycle;Max_cycle;Signal;HPM_P1;HPM_P2
2023/01/03 00:00:18;;;;;;;28.73;15.65;;;;;;;4.91;100.00;102484.09;2615015;36;20607;-59
2023/01/03 00:02:46;;;;;;;27.95;14.32;;;;;;;4.89;100.00;102490.44;2615293;36;20435;-61
2023/01/03 00:05:14;;;;;;;30.98;15.40;;;;;;;4.93;100.00;102488.50;2614705;36;20027;-59
2023/01/03 00:07:43;;;;;;;26.65;14.88;;;;;;;4.82;100.00;102489.78;2614399;36;20037;-60
2023/01/03 00:10:12;;;;;;;30.20;15.15;;;;;;;4.70;100.00;102490.25;2614197;36;20035;-60
2023/01/03 00:12:41;;;;;;;30.75;15.18;;;;;;;4.75;100.00;102488.28;2614483;36;20034;-59
2023/01/03 00:15:14;;;;;;;31.20;15.57;;;;;;;4.72;100.00;102488.41;2614154;36;20665;-60
2023/01/03 00:17:42;;;;;;;32.17;15.25;;;;;;;4.69;100.00;102501.84;2614526;36;20034;-61
2023/01/03 00:20:12;;;;;;;34.83;17.05;;;;;;;4.64;100.00;102495.81;2614557;36;20030;-60
2023/01/03 00:22:40;;;;;;;35.58;15.27;;;;;;;4.63;100.00;102505.63;2615063;36;20054;-59
2023/01/03 00:25:09;;;;;;;29.30;15.25;;;;;;;4.65;100.00;102503.78;2614335;36;20606;-60
2023/01/03 00:27:38;;;;;;;34.85;15.95;;;;;;;4.61;100.00;102502.16;2615513;36;20427;-60
2023/01/03 00:30:10;;;;;;;31.35;16.35;;;;;;;4.61;100.00;102501.25;2614890;36;20041;-59
2023/01/03 00:32:38;;;;;;;27.15;14.43;;;;;;;4.56;100.00;102515.66;2614559;36;20041;-60
2023/01/03 00:35:08;;;;;;;34.25;15.27;;;;;;;4.52;100.00;102514.03;2614917;36;20579;-60
2023/01/03 00:37:36;;;;;;;35.33;16.95;;;;;;;4.50;100.00;102513.19;2615253;36;20038;-60
2023/01/03 00:40:06;;;;;;;29.90;15.88;;;;;;;4.42;100.00;102512.63;2614237;36;20045;-59
2023/01/03 00:43:27;;;;;;;36.13;16.63;;;;;;;4.44;100.00;102513.41;2615318;36;20555;-60
2023/01/03 00:45:27;;;;;;;31.35;15.35;;;;;;;4.38;100.00;102516.31;2614820;36;20030;-60
2023/01/03 00:47:56;;;;;;;30.30;15.50;;;;;;;4.31;100.00;102510.31;2615562;36;20407;-61
2023/01/03 00:50:24;;;;;;;29.25;15.25;;;;;;;4.37;100.00;102519.88;2614584;36;20038;-61
2023/01/03 00:52:52;;;;;;;30.60;15.77;;;;;;;4.42;100.00;102511.72;2615696;36;20474;-60
2023/01/03 00:55:21;;;;;;;31.92;15.73;;;;;;;4.42;100.00;102515.28;2615046;36;20057;-60
2023/01/03 00:57:49;;;;;;;30.15;16.77;;;;;;;4.36;100.00;102515.50;2614749;36;20057;-61
2023/01/03 01:00:23;;;;;;;31.52;16.63;;;;;;;4.31;100.00;102514.78;2614911;31;20034;-59
2023/01/03 01:02:57;;;;;;;34.67;16.25;;;;;;;4.24;100.00;102518.59;2614576;36;20066;-61
2023/01/03 01:05:25;;;;;;;30.08;15.57;;;;;;;4.19;100.00;102518.75;2614614;36;20038;-60
2023/01/03 01:07:54;;;;;;;28.80;15.60;;;;;;;4.24;100.00;102523.91;2614364;36;20438;-60
2023/01/03 01:10:22;;;;;;;34.05;16.23;;;;;;;4.20;100.00;102524.03;2612740;36;20043;-60
2023/01/03 01:12:50;;;;;;;31.60;15.07;;;;;;;4.17;100.00;102534.81;2614159;36;20031;-60
2023/01/03 01:15:19;;;;;;;31.13;16.03;;;;;;;4.20;100.00;102533.81;2614743;36;20038;-60
2023/01/03 01:17:47;;;;;;;30.40;15.87;;;;;;;4.17;100.00;102528.59;2615246;36;20034;-60
2023/01/03 01:20:19;;;;;;;30.52;16.67;;;;;;;4.24;100.00;102524.81;2614164;31;20034;-61
2023/01/03 01:22:47;;;;;;;31.92;17.08;;;;;;;4.21;100.00;102531.09;2615189;36;20034;-60
2023/01/03 01:25:15;;;;;;;35.63;17.10;;;;;;;4.31;100.00;102528.13;2615511;36;20037;-61
2023/01/03 01:27:44;;;;;;;38.45;17.90;;;;;;;4.37;100.00;102525.22;2615136;36;20038;-60
2023/01/03 01:30:12;;;;;;;30.98;15.77;;;;;;;4.37;100.00;102535.88;2614838;36;20030;-61
2023/01/03 01:32:40;;;;;;;35.50;17.92;;;;;;;4.38;100.00;102534.97;2615127;36;20149;-61
2023/01/03 01:35:10;;;;;;;40.10;18.67;;;;;;;4.36;100.00;102532.34;2614284;36;20031;-60
2023/01/03 01:37:40;;;;;;;39.38;17.80;;;;;;;4.26;100.00;102549.59;2614581;36;20030;-62
2023/01/03 01:40:10;;;;;;;32.28;16.42;;;;;;;4.25;100.00;102547.84;2614520;36;20554;-62
2023/01/03 01:45:19;;;;;;;37.03;17.30;;;;;;;4.25;100.00;102544.31;2615270;36;20034;-59
2023/01/03 01:47:53;;;;;;;33.58;17.08;;;;;;;4.24;100.00;102555.91;2615251;36;20029;-59
2023/01/03 01:50:29;;;;;;;35.58;17.40;;;;;;;4.18;100.00;102551.66;2614999;36;20042;-59
2023/01/03 01:53:04;;;;;;;32.42;16.60;;;;;;;4.12;100.00;102554.53;2616124;36;20034;-59
2023/01/03 01:55:36;;;;;;;31.98;15.93;;;;;;;3.99;100.00;102556.72;2615313;36;20577;-59
2023/01/03 01:58:06;;;;;;;37.03;17.02;;;;;;;3.96;100.00;102562.16;2615451;36;20054;-60
2023/01/03 02:00:36;;;;;;;30.45;15.68;;;;;;;3.86;100.00;102564.28;2616512;36;20455;-60
2023/01/03 02:03:05;;;;;;;35.22;17.17;;;;;;;3.83;100.00;102559.91;2615584;36;20034;-60
2023/01/03 02:05:35;;;;;;;35.08;16.83;;;;;;;3.83;100.00;102559.91;2614242;36;20042;-59
2023/01/03 02:08:07;;;;;;;27.40;15.93;;;;;;;3.86;100.00;102565.16;2614096;36;20022;-60
2023/01/03 02:10:53;;;;;;;33.97;17.83;;;;;;;3.92;100.00;102563.22;2614422;36;20063;-59
2023/01/03 02:13:30;;;;;;;32.67;16.67;;;;;;;3.90;100.00;102557.06;2615591;36;20031;-62
2023/01/03 02:16:16;;;;;;;32.08;16.73;;;;;;;3.73;100.00;102558.47;2615036;36;20041;-61
2023/01/03 02:18:53;;;;;;;29.80;16.23;;;;;;;3.69;100.00;102564.81;2613533;31;20509;-61
2023/01/03 02:22:01;;;;;;;28.88;15.55;;;;;;;3.74;100.00;102562.91;2614805;36;20033;-60
2023/01/03 02:25:03;;;;;;;28.45;15.82;;;;;;;3.62;100.00;102571.25;2615153;31;20041;-60
2023/01/03 02:27:57;;;;;;;28.35;16.55;;;;;;;3.67;100.00;102570.19;2616000;36;20435;-59
2023/01/03 02:30:36;;;;;;;32.53;16.17;;;;;;;3.65;100.00;102573.81;2615801;36;20022;-62
2023/01/03 02:33:20;;;;;;;31.58;16.83;;;;;;;3.60;100.00;102565.97;2615135;31;20031;-60
2023/01/03 02:35:58;;;;;;;31.98;16.77;;;;;;;3.68;100.00;102557.75;2616100;36;20031;-60
2023/01/03 02:38:36;;;;;;;32.83;16.40;;;;;;;3.64;100.00;102561.44;2616419;36;20038;-61
2023/01/03 02:41:11;;;;;;;28.90;14.93;;;;;;;3.58;100.00;102562.50;2615512;36;20034;-62
2023/01/03 02:43:45;;;;;;;27.42;15.43;;;;;;;3.49;100.00;102560.16;2616502;36;20033;-62
2023/01/03 02:46:23;;;;;;;34.22;15.80;;;;;;;3.45;100.00;102562.03;2616007;36;20034;-61
2023/01/03 02:48:58;;;;;;;32.80;16.45;;;;;;;3.46;100.00;102562.88;2615214;36;20419;-63
2023/01/03 02:51:34;;;;;;;26.90;15.40;;;;;;;3.50;100.00;102565.44;2615047;36;20404;-62
2023/01/03 02:54:05;;;;;;;29.25;15.13;;;;;;;3.60;100.00;102563.31;2614996;31;20030;-60
2023/01/03 02:56:39;;;;;;;30.52;16.17;;;;;;;3.68;100.00;102560.41;2615062;36;20042;-61
2023/01/03 02:59:13;;;;;;;29.50;15.60;;;;;;;3.62;100.00;102564.16;2615875;36;20030;-61
2023/01/03 03:01:49;;;;;;;30.67;16.20;;;;;;;3.61;100.00;102561.56;2616006;36;20063;-61
2023/01/03 03:04:18;;;;;;;28.58;15.60;;;;;;;3.53;100.00;102563.56;2615917;36;20030;-61
2023/01/03 03:06:54;;;;;;;30.30;14.52;;;;;;;3.51;100.00;102556.50;2616079;36;20442;-60
2023/01/03 03:09:22;;;;;;;27.52;15.75;;;;;;;3.49;100.00;102558.34;2615637;36;20037;-61
2023/01/03 03:14:38;;;;;;;29.33;16.08;;;;;;;3.51;100.00;102555.63;2616300;31;20535;-61
2023/01/03 03:17:13;;;;;;;26.38;14.60;;;;;;;3.56;100.00;102555.50;2616313;36;20570;-61
2023/01/03 03:25:16;;;;;;;26.27;14.60;;;;;;;3.41;100.00;102549.72;2615937;36;20042;-60
2023/01/03 03:30:33;;;;;;;25.23;14.05;;;;;;;3.36;100.00;102551.66;2616006;31;20030;-60
2023/01/03 03:33:07;;;;;;;29.75;15.30;;;;;;;3.42;100.00;102540.81;2615816;36;20049;-61
2023/01/03 03:35:41;;;;;;;28.60;16.10;;;;;;;3.48;100.00;102545.94;2615978;36;20034;-61
2023/01/03 03:38:14;;;;;;;28.83;14.95;;;;;;;3.28;100.00;102548.34;2616270;36;20465;-62
2023/01/03 03:46:46;;;;;;;27.90;14.88;;;;;;;3.21;100.00;102560.09;2610163;36;20043;-61
2023/01/03 03:52:16;;;;;;;25.27;14.13;;;;;;;3.08;100.00;102551.66;2611543;31;20118;-60
2023/01/03 03:54:50;;;;;;;30.17;15.93;;;;;;;3.09;100.00;102551.59;2610966;36;20034;-61
2023/01/03 03:57:24;;;;;;;24.95;14.55;;;;;;;3.09;100.00;102543.63;2612573;36;20547;-59
2023/01/03 03:59:57;;;;;;;31.08;14.82;;;;;;;3.03;100.00;102554.41;2613773;31;20046;-61
2023/01/03 04:02:29;;;;;;;25.67;14.63;;;;;;;2.96;100.00;102551.09;2615337;36;20042;-62
2023/01/03 04:05:06;;;;;;;29.58;15.10;;;;;;;2.95;100.00;102561.75;2615871;31;20030;-62
2023/01/03 04:07:35;;;;;;;31.38;15.65;;;;;;;2.88;100.00;102561.06;2616341;36;20444;-61
2023/01/03 04:10:03;;;;;;;27.80;14.03;;;;;;;2.90;100.00;102567.22;2616096;36;20038;-61
2023/01/03 04:12:32;;;;;;;31.88;15.88;;;;;;;2.88;100.00;102563.72;2615931;36;20280;-60
2023/01/03 04:15:01;;;;;;;24.65;14.40;;;;;;;2.88;100.00;102568.19;2615947;36;20034;-61
2023/01/03 04:17:29;;;;;;;23.98;14.15;;;;;;;2.77;100.00;102566.69;2615725;36;20566;-61
2023/01/03 04:20:00;;;;;;;28.48;15.52;;;;;;;2.85;100.00;102568.28;2615341;36;20026;-61
2023/01/03 04:22:29;;;;;;;33.47;16.80;;;;;;;3.08;100.00;102563.16;2604518;31;20084;-60
2023/01/03 04:24:57;;;;;;;39.88;17.63;;;;;;;3.25;100.00;102567.09;2605088;36;20038;-61
2023/01/03 04:27:25;;;;;;;52.50;18.00;;;;;;;3.37;100.00;102574.69;2607975;36;20658;-62
2023/01/03 04:29:53;;;;;;;51.28;18.85;;;;;;;3.54;100.00;102570.66;2612396;36;20447;-61
2023/01/03 04:32:22;;;;;;;62.08;19.13;;;;;;;3.61;100.00;102580.19;2611127;36;20038;-61
2023/01/03 04:34:50;;;;;;;51.80;16.05;;;;;;;3.66;100.00;102580.91;2611393;36;20039;-60
2023/01/03 04:37:21;;;;;;;60.97;19.23;;;;;;;3.68;100.00;102584.38;2611380;36;20041;-60
2023/01/03 04:39:49;;;;;;;37.80;16.58;;;;;;;3.80;100.00;102586.66;2611484;36;20034;-61
2023/01/03 04:44:59;;;;;;;75.28;19.02;;;;;;;3.86;100.00;102582.94;2612507;36;20053;-61
2023/01/03 04:47:27;;;;;;;61.38;19.35;;;;;;;3.99;100.00;102580.72;2612101;36;20588;-60
2023/01/03 04:49:55;;;;;;;51.73;17.87;;;;;;;4.05;100.00;102583.19;2611808;36;20030;-60
2023/01/03 04:52:26;;;;;;;48.40;17.48;;;;;;;4.16;100.00;102577.50;2611647;36;20375;-60
2023/01/03 04:54:55;;;;;;;44.13;19.02;;;;;;;4.16;100.00;102578.34;2611987;36;20030;-61
2023/01/03 04:57:23;;;;;;;50.97;19.67;;;;;;;4.31;100.00;102576.09;2612869;36;20049;-60
2023/01/03 04:59:51;;;;;;;57.42;20.02;;;;;;;4.36;100.00;102574.16;2612379;36;20030;-60
2023/01/03 05:02:20;;;;;;;53.17;18.48;;;;;;;4.33;100.00;102576.94;2611584;31;20030;-60
2023/01/03 05:04:48;;;;;;;44.63;18.48;;;;;;;4.35;100.00;102575.06;2611791;36;20042;-59
2023/01/03 05:07:16;;;;;;;41.30;20.30;;;;;;;4.38;100.00;102585.63;2612026;36;20022;-59
2023/01/03 05:09:47;;;;;;;57.65;20.85;;;;;;;4.49;100.00;102582.56;2611096;36;20038;-61
2023/01/03 05:12:16;;;;;;;57.45;19.58;;;;;;;4.44;100.00;102577.41;2611757;36;20045;-60
2023/01/03 05:14:44;;;;;;;44.75;18.90;;;;;;;4.53;100.00;102587.75;2612163;36;20673;-60
2023/01/03 05:17:12;;;;;;;54.67;19.50;;;;;;;4.68;100.00;102593.44;2611894;36;20037;-60
2023/01/03 05:27:46;;;;;;;70.15;21.20;;;;;;;4.85;100.00;102593.72;2610732;36;20026;-60
2023/01/03 05:30:14;;;;;;;105.30;23.00;;;;;;;5.03;100.00;102591.28;2611177;36;20030;-61
2023/01/03 05:32:43;;;;;;;64.30;23.55;;;;;;;4.97;100.00;102595.06;2612470;36;20034;-61
2023/01/03 05:35:11;;;;;;;84.15;23.73;;;;;;;5.12;100.00;102598.09;2611486;36;20038;-59
2023/01/03 05:37:40;;;;;;;104.13;26.77;;;;;;;5.09;100.00;102591.06;2611190;36;20126;-60
2023/01/03 05:40:12;;;;;;;104.55;26.40;;;;;;;5.23;100.00;102593.22;2611181;36;20034;-60
2023/01/03 05:42:42;;;;;;;65.13;23.38;;;;;;;5.42;100.00;102588.91;2610489;36;20022;-59
2023/01/03 05:45:11;;;;;;;135.48;29.35;;;;;;;5.51;100.00;102585.00;2611572;36;20039;-60
2023/01/03 05:47:39;;;;;;;99.15;26.88;;;;;;;5.47;100.00;102580.69;2612538;36;20431;-59
2023/01/03 05:50:09;;;;;;;87.60;26.02;;;;;;;5.44;100.00;102588.84;2612132;36;20023;-60
2023/01/03 05:52:37;;;;;;;99.90;26.20;;;;;;;5.70;100.00;102578.94;2611771;36;20027;-59
2023/01/03 05:55:06;;;;;;;111.47;28.70;;;;;;;5.62;100.00;102581.88;2611591;36;20023;-59
2023/01/03 05:57:37;;;;;;;114.97;30.45;;;;;;;5.63;100.00;102574.78;2613515;36;20423;-60
2023/01/03 06:00:06;;;;;;;106.85;29.85;;;;;;;5.58;100.00;102567.81;2615441;36;20035;-59
2023/01/03 06:02:35;;;;;;;106.90;31.17;;;;;;;5.65;100.00;102562.22;2614287;36;20050;-59
2023/01/03 06:05:03;;;;;;;97.93;29.95;;;;;;;5.70;100.00;102574.44;2615691;36;20271;-60
2023/01/03 06:07:32;;;;;;;102.35;32.03;;;;;;;5.72;100.00;102561.88;2615464;36;20031;-60
2023/01/03 06:10:01;;;;;;;;;;;;;;;5.75;100.00;102561.75;2616171;36;20034;-59
2023/01/03 06:12:30;;;;;;;87.15;32.20;;;;;;;5.77;100.00;102559.91;2616056;31;19938;-60
2023/01/03 06:15:01;;;;;;;90.95;32.88;;;;;;;5.69;100.00;102561.16;2616292;36;20034;-59
2023/01/03 06:20:11;;;;;;;87.28;35.50;;;;;;;5.75;100.00;102571.59;2615263;36;20038;-59
2023/01/03 06:22:39;;;;;;;96.82;35.10;;;;;;;5.73;100.00;102573.47;2615021;36;20042;-60
2023/01/03 06:25:08;;;;;;;89.50;34.22;;;;;;;5.75;100.00;102571.59;2615836;36;20042;-59
2023/01/03 06:27:36;;;;;;;91.90;36.53;;;;;;;5.72;100.00;102577.06;2616228;36;20112;-58
2023/01/03 06:30:09;;;;;;;104.13;40.17;;;;;;;5.64;100.00;102576.50;2610989;36;20038;-60
2023/01/03 06:32:37;;;;;;;106.97;39.15;;;;;;;5.69;100.00;102572.69;2611500;36;20125;-60
2023/01/03 06:35:06;;;;;;;93.53;36.75;;;;;;;5.65;100.00;102570.22;2611490;36;20065;-60
2023/01/03 06:37:35;;;;;;;98.45;35.50;;;;;;;5.58;100.00;102578.47;2611986;36;20178;-60
2023/01/03 06:40:03;;;;;;;112.07;40.90;;;;;;;5.59;100.00;102571.34;2611946;36;20089;-61
2023/01/03 06:42:46;;;;;;;110.13;39.85;;;;;;;5.57;100.00;102574.06;2612135;36;20049;-61
2023/01/03 06:53:25;;;;;;;119.65;40.80;;;;;;;5.46;100.00;102570.94;2612217;36;20034;-59
2023/01/03 06:55:53;;;;;;;113.70;41.08;;;;;;;5.39;100.00;102559.66;2613212;36;20688;-59
2023/01/03 06:58:21;;;;;;;108.05;39.80;;;;;;;5.39;100.00;102561.47;2612935;36;20396;-60
2023/01/03 07:00:52;;;;;;;110.63;42.20;;;;;;;5.35;100.00;102552.69;2611836;36;20035;-60
2023/01/03 07:03:21;;;;;;;105.72;38.33;;;;;;;5.29;100.00;102549.41;2612544;36;20582;-59
2023/01/03 07:05:49;;;;;;;115.63;40.03;;;;;;;5.22;100.00;102554.09;2613141;36;20146;-62
2023/01/03 07:08:17;;;;;;;96.20;37.25;;;;;;;5.08;100.00;102554.66;2612121;36;20038;-60
2023/01/03 07:10:46;;;;;;;100.63;36.47;;;;;;;5.14;100.00;102559.75;2611317;36;20034;-59
2023/01/03 07:15:57;;;;;;;97.25;37.45;;;;;;;5.18;100.00;102560.47;2612581;36;20026;-59
2023/01/03 07:18:26;;;;;;;100.75;36.78;;;;;;;5.08;100.00;102557.31;2611941;36;20558;-59
2023/01/03 07:20:55;;;;;;;97.55;37.42;;;;;;;5.09;100.00;102554.59;2611535;36;20046;-59
2023/01/03 07:23:23;;;;;;;103.40;38.10;;;;;;;5.12;100.00;102556.25;2613510;36;20627;-59
2023/01/03 07:25:55;;;;;;;93.53;35.65;;;;;;;5.19;100.00;102552.41;2613348;31;20103;-61
2023/01/03 07:28:23;;;;;;;82.00;31.33;;;;;;;5.23;100.00;102555.84;2612468;31;20512;-61
2023/01/03 07:30:52;;;;;;;75.47;31.42;;;;;;;5.19;100.00;102556.88;2612108;36;20031;-60
2023/01/03 07:33:23;;;;;;;88.78;35.25;;;;;;;5.17;100.00;102554.28;2612217;36;20030;-60
2023/01/03 07:35:51;;;;;;;82.88;31.80;;;;;;;5.17;100.00;102564.09;2613467;36;21157;-61
2023/01/03 07:38:19;;;;;;;82.50;34.33;;;;;;;5.14;100.00;102575.75;2612742;31;20037;-59
2023/01/03 07:40:48;;;;;;;89.38;35.22;;;;;;;5.14;100.00;102578.44;2612039;36;20447;-59
2023/01/03 07:45:57;;;;;;;81.20;33.70;;;;;;;5.13;100.00;102568.66;2615826;36;20057;-60
2023/01/03 07:48:28;;;;;;;86.05;32.80;;;;;;;5.12;100.00;102566.91;2615199;36;20030;-60
2023/01/03 07:50:59;;;;;;;81.43;33.10;;;;;;;5.24;100.00;102561.13;2616423;31;20022;-60
2023/01/03 07:53:28;;;;;;;74.20;31.42;;;;;;;5.28;100.00;102558.34;2615572;36;20122;-59
2023/01/03 07:56:02;;;;;;;68.53;31.02;;;;;;;5.22;100.00;102551.44;2616867;31;20035;-60
2023/01/03 07:58:31;;;;;;;79.70;31.58;;;;;;;5.16;100.00;102551.66;2616160;36;20034;-60
2023/01/03 08:01:04;;;;;;;72.55;31.75;;;;;;;5.30;100.00;102560.03;2614332;36;20065;-59
2023/01/03 08:03:36;;;;;;;76.10;32.35;;;;;;;5.34;100.00;102566.09;2615756;31;20022;-60
2023/01/03 08:06:06;;;;;;;69.90;28.50;;;;;;;5.41;100.00;102576.47;2615462;36;20030;-59
2023/01/03 08:08:34;;;;;;;61.05;28.42;;;;;;;5.46;100.00;102575.44;2615859;36;20821;-59
2023/01/03 08:13:45;;;;;;;54.25;24.63;;;;;;;5.60;100.00;102563.25;2615239;36;20037;-59
2023/01/03 08:16:16;;;;;;;55.88;24.35;;;;;;;5.70;100.00;102578.94;2615330;31;20038;-60
2023/01/03 08:18:47;;;;;;;51.45;23.83;;;;;;;5.78;100.00;102571.47;2615678;36;20037;-58
2023/01/03 08:21:17;;;;;;;50.55;22.98;;;;;;;5.93;100.00;102578.84;2614829;36;20550;-58
2023/01/03 08:23:47;;;;;;;;;;;;;;;5.95;100.00;102574.31;2616054;36;20030;-59
2023/01/03 08:26:17;;;;;;;46.58;21.38;;;;;;;5.97;100.00;102576.94;2615156;36;19989;-59
2023/01/03 08:28:46;;;;;;;46.45;20.85;;;;;;;6.19;100.00;102582.25;2615309;36;20042;-58
2023/01/03 08:31:18;;;;;;;49.22;20.23;;;;;;;6.10;100.00;102582.66;2616187;36;20438;-59
2023/01/03 08:33:53;;;;;;;42.97;20.67;;;;;;;6.05;100.00;102580.19;2616276;36;20408;-60
2023/01/03 08:36:24;;;;;;;48.72;21.10;;;;;;;6.25;100.00;102570.44;2614981;36;20038;-60
2023/01/03 08:38:58;;;;;;;41.55;19.48;;;;;;;6.16;100.00;102568.16;2612398;36;20034;-60
2023/01/03 08:41:30;;;;;;;40.40;20.58;;;;;;;6.20;100.00;102570.63;2609529;36;20030;-59
2023/01/03 08:44:02;;;;;;;44.45;18.70;;;;;;;6.22;100.00;102558.06;2615315;36;20030;-59
2023/01/03 08:46:32;;;;;;;37.92;19.67;;;;;;;6.26;100.00;102559.69;2615723;31;20031;-60
2023/01/03 08:49:03;;;;;;;37.45;19.95;;;;;;;6.22;100.00;102551.84;2613820;36;20034;-60
2023/01/03 08:51:32;;;;;;;37.53;18.35;;;;;;;6.38;100.00;102549.41;2615181;36;20045;-58
2023/01/03 08:54:00;;;;;;;41.67;19.60;;;;;;;6.40;100.00;102545.69;2614743;36;20029;-59
2023/01/03 08:56:28;;;;;;;32.08;18.23;;;;;;;6.43;100.00;102552.72;2613384;36;20279;-59
2023/01/03 08:58:58;;;;;;;35.08;17.13;;;;;;;6.45;100.00;102564.25;2615158;31;20049;-60
2023/01/03 09:01:27;;;;;;;34.75;16.40;;;;;;;6.52;100.00;102588.91;2615154;36;20145;-58
2023/01/03 09:03:55;;;;;;;35.10;19.13;;;;;;;6.60;100.00;102586.75;2615440;36;20045;-60
2023/01/03 09:06:26;;;;;;;39.28;18.58;;;;;;;6.48;100.00;102582.81;2615090;36;20042;-58
2023/01/03 09:08:54;;;;;;;33.08;16.13;;;;;;;6.57;100.00;102579.72;2614592;36;20030;-60
2023/01/03 09:11:22;;;;;;;36.42;16.92;;;;;;;6.69;100.00;102582.81;2612782;36;20041;-59
2023/01/03 09:13:51;;;;;;;30.90;15.73;;;;;;;6.70;100.00;102577.41;2615000;36;20030;-60
2023/01/03 09:16:19;;;;;;;33.97;17.60;;;;;;;6.66;100.00;102573.09;2616172;36;20427;-59
2023/01/03 09:18:47;;;;;;;30.75;15.57;;;;;;;6.55;100.00;102575.38;2615243;36;20521;-59
2023/01/03 09:21:16;;;;;;;35.40;16.95;;;;;;;6.69;100.00;102569.44;2615655;36;20030;-60
2023/01/03 09:23:47;;;;;;;31.73;17.15;;;;;;;6.69;100.00;102572.13;2616279;36;20045;-59
2023/01/03 09:26:15;;;;;;;35.60;16.52;;;;;;;6.63;100.00;102562.53;2614407;36;20050;-59
2023/01/03 09:28:43;;;;;;;27.15;15.93;;;;;;;6.72;100.00;102569.28;2614959;36;20031;-58
2023/01/03 09:31:12;;;;;;;34.53;16.55;;;;;;;6.81;100.00;102572.41;2615139;36;20551;-58
2023/01/03 09:33:40;;;;;;;36.92;17.10;;;;;;;6.78;100.00;102571.69;2613220;36;20042;-62
2023/01/03 09:36:09;;;;;;;30.10;16.80;;;;;;;6.67;100.00;102569.50;2614540;36;20039;-60
2023/01/03 09:38:38;;;;;;;34.42;17.30;;;;;;;6.76;100.00;102570.91;2615668;36;20023;-61
2023/01/03 09:41:14;;;;;;;33.45;16.60;;;;;;;6.81;100.00;102561.69;2613288;36;20034;-60
2023/01/03 09:43:45;;;;;;;34.55;17.65;;;;;;;6.88;100.00;102556.94;2614467;36;20037;-60
2023/01/03 09:46:18;;;;;;;38.67;18.25;;;;;;;6.96;100.00;102562.84;2616168;36;20038;-61
2023/01/03 09:48:47;;;;;;;37.10;17.50;;;;;;;7.02;100.00;102567.00;2616796;36;20034;-60
2023/01/03 10:05:32;;;;;;;30.27;15.93;;;;;;;7.01;100.00;102566.16;2615804;36;20034;-60
2023/01/03 10:08:10;;;;;;;36.88;18.02;;;;;;;7.06;100.00;102571.28;2616438;31;20042;-62
2023/01/03 10:10:49;;;;;;;39.00;16.80;;;;;;;7.03;100.00;102567.91;2616013;31;20411;-60
2023/01/03 10:13:24;;;;;;;;;;;;;;;7.16;100.00;102574.41;2615722;36;20039;-61
2023/01/03 10:16:03;;;;;;;44.80;18.75;;;;;;;7.05;100.00;102574.91;2615478;36;19946;-60
2023/01/03 10:19:01;;;;;;;40.60;18.92;;;;;;;7.07;100.00;102566.81;2614509;36;20031;-60
2023/01/03 10:21:40;;;;;;;41.53;17.63;;;;;;;7.20;100.00;102559.94;2614817;36;20034;-60
2023/01/03 10:24:19;;;;;;;41.47;18.35;;;;;;;7.43;100.00;102555.28;2615289;36;20042;-60
2023/01/03 10:26:49;;;;;;;;;;;;;;;7.43;100.00;102549.94;2615493;36;20169;-61
2023/01/03 10:29:21;;;;;;;48.85;18.75;;;;;;;7.39;100.00;102559.94;2613765;36;19954;-59
2023/01/03 10:32:08;;;;;;;44.38;18.63;;;;;;;7.51;100.00;102553.13;2614324;36;20038;-60
2023/01/03 10:34:38;;;;;;;48.88;19.17;;;;;;;7.52;100.00;102554.84;2611967;31;20034;-60
2023/01/03 10:37:18;;;;;;;46.40;17.90;;;;;;;7.59;100.00;102558.09;2615036;36;20042;-59
2023/01/03 10:39:47;;;;;;;42.60;17.63;;;;;;;7.68;100.00;102560.31;2616613;36;20121;-59
2023/01/03 10:42:19;;;;;;;47.50;17.67;;;;;;;7.67;100.00;102558.56;2615442;36;20035;-59
2023/01/03 10:45:03;;;;;;;43.58;18.30;;;;;;;7.57;100.00;102562.66;2615904;36;20542;-60
2023/01/03 10:47:31;;;;;;;43.60;17.17;;;;;;;7.63;100.00;102557.88;2616292;36;20038;-60
2023/01/03 10:50:01;;;;;;;41.90;19.93;;;;;;;7.64;100.00;102559.63;2615407;36;20041;-60
2023/01/03 10:52:34;;;;;;;39.97;18.30;;;;;;;7.75;100.00;102560.91;2616063;36;20026;-59
2023/01/03 10:55:05;;;;;;;39.60;17.52;;;;;;;7.76;100.00;102563.50;2616414;36;20030;-61
2023/01/03 10:57:44;;;;;;;40.17;18.17;;;;;;;7.74;100.00;102556.47;2615445;36;20031;-61
2023/01/03 11:00:29;;;;;;;;;;;;;;;7.77;100.00;102551.81;2615900;36;20034;-60
2023/01/03 11:03:08;;;;;;;45.58;18.25;;;;;;;7.70;100.00;102556.63;2616088;36;19947;-59
2023/01/03 11:05:37;;;;;;;42.45;20.17;;;;;;;7.85;100.00;102559.50;2616167;36;20034;-59
2023/01/03 11:08:07;;;;;;;46.58;20.75;;;;;;;7.76;100.00;102547.44;2615788;36;20403;-60
2023/01/03 11:10:40;;;;;;;46.13;20.27;;;;;;;7.82;100.00;102546.25;2616430;36;20030;-59
2023/01/03 11:13:24;;;;;;;46.42;18.95;;;;;;;7.82;100.00;102535.53;2614691;36;20031;-59
2023/01/03 11:15:58;;;;;;;37.65;16.85;;;;;;;7.89;100.00;102544.97;2615911;36;20035;-60
2023/01/03 11:18:28;;;;;;;43.22;18.13;;;;;;;7.87;100.00;102539.69;2614746;36;20569;-60
2023/01/03 11:21:06;;;;;;;42.30;18.08;;;;;;;7.92;100.00;102542.16;2615308;36;20622;-59
2023/01/03 11:24:03;;;;;;;47.92;18.73;;;;;;;7.98;100.00;102536.50;2616649;36;20093;-61
2023/01/03 11:26:44;;;;;;;36.88;17.48;;;;;;;7.94;100.00;102540.28;2615546;36;20041;-60
2023/01/03 11:29:32;;;;;;;37.72;17.63;;;;;;;8.07;100.00;102544.06;2614858;36;20042;-59
2023/01/03 11:32:12;;;;;;;35.45;16.70;;;;;;;8.09;100.00;102532.41;2615239;31;20022;-60
2023/01/03 11:34:59;;;;;;;37.10;16.65;;;;;;;8.12;100.00;102532.25;2615779;36;20034;-59
2023/01/03 11:37:35;;;;;;;43.92;16.40;;;;;;;8.07;100.00;102525.28;2616234;31;20436;-59
2023/01/03 11:40:23;;;;;;;40.80;17.92;;;;;;;8.16;100.00;102523.09;2616940;36;20406;-60
2023/01/03 11:43:05;;;;;;;39.20;16.73;;;;;;;8.15;100.00;102524.88;2614976;36;20038;-59
2023/01/03 11:46:05;;;;;;;38.53;15.98;;;;;;;8.23;100.00;102513.78;2615247;36;20415;-59
2023/01/03 11:49:02;;;;;;;36.30;17.50;;;;;;;8.22;100.00;102526.31;2613802;36;20037;-60
2023/01/03 11:51:37;;;;;;;43.15;17.08;;;;;;;8.18;100.00;102515.81;2614675;31;20046;-61
2023/01/03 11:54:15;;;;;;;42.65;17.92;;;;;;;8.17;100.00;102506.91;2615298;36;20100;-62
2023/01/03 11:56:46;;;;;;;40.33;16.73;;;;;;;8.27;100.00;102509.09;2615398;36;20034;-59
2023/01/03 11:59:32;;;;;;;42.17;15.13;;;;;;;8.31;100.00;102505.31;2614536;36;20130;-59
2023/01/03 12:02:35;;;;;;;37.42;17.27;;;;;;;8.37;100.00;102507.69;2616351;31;20423;-61
2023/01/03 12:05:26;;;;;;;37.47;16.38;;;;;;;8.33;100.00;102500.72;2615328;36;20411;-59
2023/01/03 12:08:00;;;;;;;33.92;15.55;;;;;;;8.48;100.00;102488.34;2615246;31;20042;-59
2023/01/03 12:10:42;;;;;;;38.75;16.45;;;;;;;8.50;100.00;102483.78;2615731;36;20030;-61
2023/01/03 12:13:25;;;;;;;35.60;16.65;;;;;;;8.65;100.00;102474.03;2616483;36;20023;-60
2023/01/03 12:16:01;;;;;;;32.78;15.30;;;;;;;8.75;100.00;102484.16;2616440;31;20432;-61
2023/01/03 12:18:41;;;;;;;32.97;14.55;;;;;;;8.64;100.00;102486.56;2614783;36;20031;-60
2023/01/03 12:21:16;;;;;;;32.13;15.45;;;;;;;8.56;100.00;102488.81;2615112;36;20041;-61
2023/01/03 12:23:48;;;;;;;34.00;15.50;;;;;;;8.55;100.00;102487.06;2615856;36;20026;-60
2023/01/03 12:26:18;;;;;;;30.48;14.95;;;;;;;8.79;100.00;102478.63;2615866;36;20027;-60
2023/01/03 12:28:53;;;;;;;30.45;14.98;;;;;;;8.79;100.00;102484.00;2616155;36;20430;-61
2023/01/03 12:31:29;;;;;;;31.48;15.82;;;;;;;8.66;100.00;102484.69;2614524;36;20531;-61
2023/01/03 12:34:06;;;;;;;29.25;15.35;;;;;;;8.67;100.00;102481.06;2615302;36;20038;-61
2023/01/03 12:36:44;;;;;;;34.97;15.75;;;;;;;8.72;100.00;102481.66;2615331;36;20593;-62
2023/01/03 12:39:28;;;;;;;34.67;14.45;;;;;;;8.76;100.00;102459.06;2614089;36;20573;-61